createdAt,value
2022-08-02T00:00:40.566Z,18.25
2022-08-02T00:03:11.361Z,18.21
2022-08-02T00:05:39.055Z,18.22
2022-08-02T00:08:08.102Z,18.21
2022-08-02T00:10:36.167Z,18.18
2022-08-02T00:13:03.760Z,18.17
2022-08-02T00:15:31.608Z,18.16
2022-08-02T00:17:59.348Z,18.12
2022-08-02T00:20:26.811Z,18.12
2022-08-02T00:22:54.259Z,18.16
2022-08-02T00:25:22.090Z,18.11
2022-08-02T00:27:49.635Z,18.17
2022-08-02T00:30:17.140Z,18.16
2022-08-02T00:32:44.916Z,18.12
2022-08-02T00:35:12.670Z,18.11
2022-08-02T00:37:41.466Z,18.05
2022-08-02T00:40:12.395Z,18.06
2022-08-02T00:42:40.463Z,18.02
2022-08-02T00:45:08.730Z,17.99
2022-08-02T00:47:37.404Z,17.98
2022-08-02T00:50:05.939Z,18.01
2022-08-02T00:52:33.490Z,17.97
2022-08-02T00:55:01.208Z,17.90
2022-08-02T00:57:28.591Z,17.88
2022-08-02T00:59:56.063Z,17.82
2022-08-02T01:02:23.870Z,17.76
2022-08-02T01:04:51.293Z,17.79
2022-08-02T01:07:18.723Z,17.81
2022-08-02T01:09:46.913Z,17.83
2022-08-02T01:12:15.286Z,17.81
2022-08-02T01:14:44.435Z,17.81
2022-08-02T01:17:24.390Z,17.77
2022-08-02T01:20:26.324Z,17.78
2022-08-02T01:23:06.133Z,17.72
2022-08-02T01:25:39.570Z,17.68
2022-08-02T01:28:10.203Z,17.63
2022-08-02T01:30:39.110Z,17.58
2022-08-02T01:33:07.116Z,17.52
2022-08-02T01:35:47.436Z,17.52
2022-08-02T01:38:30.016Z,17.51
2022-08-02T01:40:59.379Z,17.47
2022-08-02T01:43:28.788Z,17.47
2022-08-02T01:45:57.053Z,17.47
2022-08-02T01:48:27.914Z,17.55
2022-08-02T01:50:56.196Z,17.55
2022-08-02T01:53:27.405Z,17.53
2022-08-02T01:55:57.540Z,17.49
2022-08-02T01:58:29.504Z,17.52
2022-08-02T02:00:58.762Z,17.52
2022-08-02T02:03:26.690Z,17.47
2022-08-02T02:05:57.662Z,17.52
2022-08-02T02:08:30.130Z,17.46
2022-08-02T02:12:06.295Z,17.43
2022-08-02T02:13:47.874Z,17.46
2022-08-02T02:16:16.189Z,17.44
2022-08-02T02:18:45.470Z,17.44
2022-08-02T02:21:14.138Z,17.39
2022-08-02T02:23:43.699Z,17.36
2022-08-02T02:26:14.339Z,17.33
2022-08-02T02:28:47.409Z,17.34
2022-08-02T02:31:18.243Z,17.31
2022-08-02T02:34:10.427Z,17.23
2022-08-02T02:36:40.970Z,17.16
2022-08-02T02:39:13.549Z,17.11
2022-08-02T02:41:43.130Z,17.04
2022-08-02T02:44:14.697Z,16.99
2022-08-02T02:46:42.173Z,16.96
2022-08-02T02:49:12.031Z,16.84
2022-08-02T02:51:42.829Z,16.83
2022-08-02T02:54:30.268Z,16.72
2022-08-02T02:57:01.141Z,16.72
2022-08-02T02:59:28.949Z,16.72
2022-08-02T03:01:58.041Z,16.68
2022-08-02T03:04:55.382Z,16.59
2022-08-02T03:07:17.010Z,16.54
2022-08-02T03:09:45.053Z,16.54
2022-08-02T03:12:15.533Z,16.53
2022-08-02T03:14:49.357Z,16.47
2022-08-02T03:17:16.940Z,16.36
2022-08-02T03:19:45.805Z,16.33
2022-08-02T03:22:14.074Z,16.18
2022-08-02T03:24:41.682Z,16.10
2022-08-02T03:27:09.031Z,16.09
2022-08-02T03:29:36.655Z,16.06
2022-08-02T03:32:04.704Z,16.07
2022-08-02T03:34:32.316Z,16.10
2022-08-02T03:37:00.509Z,16.03
2022-08-02T03:39:28.053Z,16.11
2022-08-02T03:41:55.740Z,16.05
2022-08-02T03:44:24.234Z,16.05
2022-08-02T03:46:52.383Z,16.09
2022-08-02T03:49:20.853Z,16.09
2022-08-02T03:51:48.705Z,15.99
2022-08-02T03:54:17.932Z,16.04
2022-08-02T03:56:45.798Z,16.01
2022-08-02T03:59:14.887Z,16.04
2022-08-02T04:01:42.843Z,16.04
2022-08-02T04:04:10.264Z,16.10
2022-08-02T04:06:39.982Z,16.17
2022-08-02T04:09:09.854Z,16.33
2022-08-02T04:11:38.150Z,16.33
2022-08-02T04:14:11.375Z,16.41
2022-08-02T04:16:57.189Z,16.48
2022-08-02T04:19:49.739Z,16.56
2022-08-02T04:22:38.642Z,16.63
2022-08-02T04:25:09.518Z,16.63
2022-08-02T04:28:15.706Z,16.77
2022-08-02T04:30:33.898Z,16.94
2022-08-02T04:33:01.750Z,16.95
2022-08-02T04:35:29.274Z,17.05
2022-08-02T04:38:09.110Z,17.28
2022-08-02T04:40:38.914Z,17.46
2022-08-02T04:43:07.215Z,17.65
2022-08-02T04:45:34.736Z,17.73
2022-08-02T04:48:06.043Z,17.87
2022-08-02T04:50:34.915Z,17.94
2022-08-02T04:53:02.515Z,18.00
2022-08-02T04:55:30.270Z,18.06
2022-08-02T04:57:58.792Z,18.18
2022-08-02T05:00:28.199Z,18.26
2022-08-02T05:02:59.836Z,18.34
2022-08-02T05:05:27.735Z,18.43
2022-08-02T05:07:55.585Z,18.66
2022-08-02T05:10:23.250Z,18.93
2022-08-02T05:12:51.822Z,19.20
2022-08-02T05:15:20.781Z,19.54
2022-08-02T05:17:49.616Z,19.81
2022-08-02T05:20:18.385Z,20.08
2022-08-02T05:22:46.199Z,20.31
2022-08-02T05:25:13.882Z,20.54
2022-08-02T05:27:41.726Z,20.76
2022-08-02T05:30:10.202Z,21.00
2022-08-02T05:32:53.535Z,21.33
2022-08-02T05:35:23.385Z,21.78
2022-08-02T05:37:51.295Z,22.11
2022-08-02T05:40:25.670Z,22.24
2022-08-02T05:42:54.685Z,22.49
2022-08-02T05:45:23.179Z,22.72
2022-08-02T05:47:51.219Z,22.95
2022-08-02T05:50:19.570Z,23.09
2022-08-02T05:52:50.920Z,23.27
2022-08-02T05:55:22.964Z,23.06
2022-08-02T05:58:11.109Z,22.76
2022-08-02T06:00:40.878Z,22.77
2022-08-02T06:03:44.302Z,22.88
2022-08-02T06:06:14.631Z,22.86
2022-08-02T06:08:47.816Z,22.90
2022-08-02T06:11:18.824Z,23.33
2022-08-02T06:13:47.750Z,23.86
2022-08-02T06:16:15.730Z,24.18
2022-08-02T06:18:46.091Z,24.40
2022-08-02T06:22:32.596Z,24.52
2022-08-02T06:24:03.780Z,24.60
2022-08-02T06:26:32.494Z,24.83
2022-08-02T06:28:59.957Z,25.24
2022-08-02T06:31:27.480Z,25.45
2022-08-02T06:33:55.577Z,25.30
2022-08-02T06:36:46.685Z,25.13
2022-08-02T06:39:24.099Z,25.11
2022-08-02T06:41:52.819Z,24.99
2022-08-02T06:44:48.011Z,24.83
2022-08-02T06:47:13.497Z,24.83
2022-08-02T06:49:52.542Z,25.17
2022-08-02T06:52:28.457Z,25.42
2022-08-02T06:55:01.378Z,25.25
2022-08-02T06:57:29.716Z,25.26
2022-08-02T06:59:58.675Z,25.25
2022-08-02T07:02:25.970Z,25.36
2022-08-02T07:04:53.642Z,25.58
2022-08-02T07:07:22.633Z,25.50
2022-08-02T07:10:00.057Z,25.61
2022-08-02T07:12:32.343Z,25.82
2022-08-02T07:15:06.784Z,26.17
2022-08-02T07:17:37.109Z,26.05
2022-08-02T07:20:07.946Z,25.98
2022-08-02T07:22:37.996Z,25.75
2022-08-02T07:25:07.800Z,25.57
2022-08-02T07:27:36.908Z,25.34
2022-08-02T07:30:06.051Z,25.23
2022-08-02T07:32:34.210Z,25.19
2022-08-02T07:35:06.652Z,24.87
2022-08-02T07:37:53.417Z,24.65
2022-08-02T07:40:25.060Z,24.84
2022-08-02T07:42:57.991Z,24.99
2022-08-02T07:45:32.944Z,25.20
2022-08-02T07:48:03.961Z,25.43
2022-08-02T07:50:31.432Z,25.54
2022-08-02T07:53:01.444Z,25.67
2022-08-02T07:55:35.147Z,25.55
2022-08-02T07:58:12.014Z,25.67
2022-08-02T08:00:43.214Z,25.85
2022-08-02T08:03:11.128Z,25.97
2022-08-02T08:05:38.778Z,26.00
2022-08-02T08:08:06.775Z,26.24
2022-08-02T08:10:34.507Z,26.24
2022-08-02T08:13:02.184Z,26.38
2022-08-02T08:15:30.467Z,26.55
2022-08-02T08:17:57.996Z,26.52
2022-08-02T08:20:25.505Z,26.75
2022-08-02T08:22:53.562Z,26.84
2022-08-02T08:25:21.114Z,26.88
2022-08-02T08:27:52.324Z,27.21
2022-08-02T08:30:22.169Z,27.46
2022-08-02T08:32:49.793Z,27.72
2022-08-02T08:35:17.355Z,27.75
2022-08-02T08:37:45.136Z,27.20
2022-08-02T08:40:13.292Z,27.18
2022-08-02T08:42:47.536Z,26.87
2022-08-02T08:45:15.137Z,26.97
2022-08-02T08:47:43.083Z,27.20
2022-08-02T08:50:18.926Z,27.31
2022-08-02T08:53:05.151Z,27.42
2022-08-02T08:55:36.119Z,27.04
2022-08-02T08:58:05.605Z,26.96
2022-08-02T09:00:34.582Z,26.91
2022-08-02T09:03:04.548Z,26.69
2022-08-02T09:05:35.250Z,26.27
2022-08-02T09:08:04.035Z,26.09
2022-08-02T09:10:37.785Z,26.10
2022-08-02T09:13:38.625Z,26.34
2022-08-02T09:16:12.273Z,26.35
2022-08-02T09:18:46.432Z,26.36
2022-08-02T09:21:16.918Z,26.49
2022-08-02T09:23:48.218Z,26.59
2022-08-02T09:26:25.605Z,26.55
2022-08-02T09:29:01.921Z,26.85
2022-08-02T09:31:29.680Z,26.93
2022-08-02T09:34:00.134Z,26.85
2022-08-02T09:36:30.598Z,26.96
2022-08-02T09:39:03.817Z,26.78
2022-08-02T09:41:37.285Z,26.82
2022-08-02T09:44:07.158Z,26.97
2022-08-02T09:46:38.556Z,27.13
2022-08-02T09:49:20.250Z,26.82
2022-08-02T09:51:48.232Z,26.97
2022-08-02T09:54:25.964Z,27.07
2022-08-02T09:56:55.738Z,27.01
2022-08-02T09:59:25.244Z,27.02
2022-08-02T10:01:58.874Z,26.86
2022-08-02T10:04:33.755Z,26.63
2022-08-02T10:07:04.748Z,26.77
2022-08-02T10:09:33.399Z,26.96
2022-08-02T10:12:01.856Z,27.03
2022-08-02T10:14:31.254Z,26.94
2022-08-02T10:16:59.039Z,27.00
2022-08-02T10:20:01.899Z,27.13
2022-08-02T10:22:16.998Z,27.17
2022-08-02T10:24:48.151Z,27.33
2022-08-02T10:27:20.760Z,27.48
2022-08-02T10:29:55.012Z,27.36
2022-08-02T10:32:48.069Z,27.28
2022-08-02T10:35:25.334Z,27.53
2022-08-02T10:38:04.105Z,27.65
2022-08-02T10:40:51.270Z,27.60
2022-08-02T10:43:45.990Z,27.15
2022-08-02T10:46:35.906Z,27.32
2022-08-02T10:49:36.087Z,27.42
2022-08-02T10:52:15.351Z,27.57
2022-08-02T10:54:51.165Z,27.54
2022-08-02T10:57:29.893Z,27.68
2022-08-02T11:00:02.646Z,27.59
2022-08-02T11:02:53.095Z,27.60
2022-08-02T11:05:43.283Z,27.57
2022-08-02T11:08:25.210Z,27.44
2022-08-02T11:10:59.331Z,27.61
2022-08-02T11:13:27.265Z,27.70
2022-08-02T11:16:01.690Z,27.68
2022-08-02T11:18:50.774Z,27.45
2022-08-02T11:21:25.206Z,27.18
2022-08-02T11:23:53.866Z,27.12
2022-08-02T11:26:39.999Z,27.17
2022-08-02T11:29:07.792Z,27.19
2022-08-02T11:31:45.067Z,26.93
2022-08-02T11:34:36.441Z,27.13
2022-08-02T11:37:01.159Z,27.05
2022-08-02T11:39:28.694Z,27.20
2022-08-02T11:41:59.041Z,27.30
2022-08-02T11:44:29.142Z,27.41
2022-08-02T11:47:01.082Z,27.32
2022-08-02T11:49:29.445Z,27.52
2022-08-02T11:52:01.825Z,27.28
2022-08-02T11:54:31.190Z,27.40
2022-08-02T11:57:20.769Z,27.57
2022-08-02T11:59:50.991Z,27.42
2022-08-02T12:02:21.405Z,27.18
2022-08-02T12:04:59.964Z,27.15
2022-08-02T12:07:34.588Z,27.09
2022-08-02T12:10:08.464Z,26.80
2022-08-02T12:12:56.973Z,26.68
2022-08-02T12:15:42.044Z,26.81
2022-08-02T12:18:29.994Z,26.82
2022-08-02T12:20:58.460Z,26.80
2022-08-02T12:23:26.372Z,26.76
2022-08-02T12:26:07.342Z,26.69
2022-08-02T12:28:39.426Z,26.72
2022-08-02T12:31:10.761Z,26.78
2022-08-02T12:33:54.725Z,26.63
2022-08-02T12:36:24.140Z,26.70
2022-08-02T12:38:55.839Z,26.75
2022-08-02T12:41:30.335Z,26.69
2022-08-02T12:44:00.775Z,26.61
2022-08-02T12:46:28.376Z,26.55
2022-08-02T12:49:16.879Z,26.51
2022-08-02T12:51:51.272Z,26.47
2022-08-02T12:54:31.022Z,26.26
2022-08-02T12:57:14.041Z,26.36
2022-08-02T12:59:43.225Z,26.27
2022-08-02T13:02:12.872Z,26.38
2022-08-02T13:04:42.198Z,26.38
2022-08-02T13:07:19.501Z,26.34
2022-08-02T13:09:48.628Z,26.40
2022-08-02T13:12:16.881Z,26.37
2022-08-02T13:14:44.687Z,26.47
2022-08-02T13:17:12.398Z,26.60
2022-08-02T13:19:41.112Z,26.57
2022-08-02T13:22:10.630Z,26.56
2022-08-02T13:24:54.956Z,26.47
2022-08-02T13:27:26.097Z,26.48
2022-08-02T13:29:55.144Z,26.60
2022-08-02T13:32:23.303Z,26.61
2022-08-02T13:34:51.676Z,26.61
2022-08-02T13:37:19.353Z,26.74
2022-08-02T13:40:05.657Z,26.76
2022-08-02T13:42:34.743Z,26.92
2022-08-02T13:45:12.450Z,27.10
2022-08-02T13:48:04.403Z,27.22
2022-08-02T13:50:33.226Z,27.29
2022-08-02T13:53:01.031Z,27.16
2022-08-02T13:55:28.946Z,26.94
2022-08-02T13:57:56.984Z,26.66
2022-08-02T14:00:35.305Z,26.64
2022-08-02T14:03:07.417Z,26.50
2022-08-02T14:05:47.486Z,26.30
2022-08-02T14:08:18.294Z,26.29
2022-08-02T14:10:48.005Z,26.14
2022-08-02T14:13:15.811Z,26.04
2022-08-02T14:15:43.530Z,26.06
2022-08-02T14:18:12.038Z,26.26
2022-08-02T14:20:39.457Z,26.39
2022-08-02T14:23:07.377Z,26.48
2022-08-02T14:25:35.289Z,26.68
2022-08-02T14:28:04.656Z,26.76
2022-08-02T14:30:32.174Z,26.68
2022-08-02T14:32:59.839Z,26.81
2022-08-02T14:35:27.480Z,26.90
2022-08-02T14:37:54.938Z,26.92
2022-08-02T14:40:30.851Z,26.88
2022-08-02T14:43:01.258Z,26.83
2022-08-02T14:45:40.553Z,26.86
2022-08-02T14:48:11.121Z,26.89
2022-08-02T14:50:38.932Z,26.80
2022-08-02T14:53:12.549Z,26.90
2022-08-02T14:55:42.133Z,26.81
2022-08-02T14:58:11.541Z,26.81
2022-08-02T15:00:41.215Z,26.76
2022-08-02T15:03:10.704Z,26.76
2022-08-02T15:05:39.421Z,26.80
2022-08-02T15:08:06.934Z,26.80
2022-08-02T15:10:34.728Z,26.87
2022-08-02T15:13:02.102Z,27.02
2022-08-02T15:15:29.801Z,27.08
2022-08-02T15:17:57.803Z,27.07
2022-08-02T15:20:27.929Z,27.04
2022-08-02T15:22:55.729Z,27.10
2022-08-02T15:25:23.922Z,27.20
2022-08-02T15:27:51.230Z,27.19
2022-08-02T15:30:19.510Z,27.21
2022-08-02T15:32:52.888Z,27.15
2022-08-02T15:35:21.704Z,27.08
2022-08-02T15:37:49.433Z,27.08
2022-08-02T15:40:17.071Z,27.08
2022-08-02T15:42:44.605Z,26.97
2022-08-02T15:45:14.688Z,26.99
2022-08-02T15:47:47.986Z,26.91
2022-08-02T15:50:19.023Z,26.91
2022-08-02T15:52:46.982Z,26.90
2022-08-02T15:55:14.660Z,26.84
2022-08-02T15:57:42.669Z,26.72
2022-08-02T16:00:18.117Z,26.68
2022-08-02T16:02:47.943Z,26.53
2022-08-02T16:05:18.212Z,26.42
2022-08-02T16:07:46.679Z,26.31
2022-08-02T16:10:15.932Z,26.33
2022-08-02T16:12:43.674Z,26.39
2022-08-02T16:15:12.901Z,26.39
2022-08-02T16:17:53.549Z,26.52
2022-08-02T16:20:23.580Z,26.45
2022-08-02T16:22:51.208Z,26.31
2022-08-02T16:25:18.693Z,26.19
2022-08-02T16:28:00.200Z,26.01
2022-08-02T16:30:34.021Z,25.85
2022-08-02T16:33:01.400Z,25.76
2022-08-02T16:35:29.131Z,25.69
2022-08-02T16:37:57.069Z,25.57
2022-08-02T16:40:25.222Z,25.55
2022-08-02T16:42:53.016Z,25.59
2022-08-02T16:45:21.467Z,25.65
2022-08-02T16:47:55.154Z,25.68
2022-08-02T16:50:27.119Z,25.72
2022-08-02T16:52:57.818Z,25.67
2022-08-02T16:55:26.099Z,25.65
2022-08-02T16:57:57.196Z,25.65
2022-08-02T17:00:24.856Z,25.55
2022-08-02T17:02:53.261Z,25.57
2022-08-02T17:05:21.231Z,25.53
2022-08-02T17:08:07.839Z,25.52
2022-08-02T17:10:37.652Z,25.52
2022-08-02T17:13:11.240Z,25.49
2022-08-02T17:16:07.747Z,25.45
2022-08-02T17:18:29.938Z,25.42
2022-08-02T17:20:58.220Z,25.37
2022-08-02T17:23:47.093Z,25.31
2022-08-02T17:26:14.170Z,25.15
2022-08-02T17:29:03.766Z,25.14
2022-08-02T17:31:37.127Z,25.02
2022-08-02T17:34:10.533Z,24.81
2022-08-02T17:36:38.985Z,24.59
2022-08-02T17:39:07.750Z,24.46
2022-08-02T17:41:37.726Z,24.20
2022-08-02T17:44:08.692Z,23.87
2022-08-02T17:46:37.110Z,23.62
2022-08-02T17:49:17.269Z,23.53
2022-08-02T17:52:16.116Z,23.43
2022-08-02T17:54:33.988Z,23.43
2022-08-02T17:57:01.913Z,23.39
2022-08-02T17:59:41.886Z,23.29
2022-08-02T18:02:11.337Z,23.10
2022-08-02T18:04:39.210Z,23.09
2022-08-02T18:07:09.772Z,22.99
2022-08-02T18:09:43.325Z,22.79
2022-08-02T18:12:14.878Z,22.63
2022-08-02T18:14:48.772Z,22.40
2022-08-02T18:17:17.093Z,22.29
2022-08-02T18:19:56.386Z,22.12
2022-08-02T18:22:27.959Z,21.94
2022-08-02T18:24:55.690Z,21.72
2022-08-02T18:27:23.289Z,21.59
2022-08-02T18:30:00.347Z,21.49
2022-08-02T18:33:54.805Z,21.42
2022-08-02T18:35:20.781Z,21.30
2022-08-02T18:37:56.845Z,21.13
2022-08-02T18:40:28.366Z,20.98
2022-08-02T18:42:58.509Z,20.82
2022-08-02T18:46:05.748Z,20.67
2022-08-02T18:48:17.527Z,20.61
2022-08-02T18:50:46.867Z,20.43
2022-08-02T18:53:16.856Z,20.43
2022-08-02T18:56:05.435Z,20.38
2022-08-02T18:58:33.478Z,20.33
2022-08-02T19:01:05.377Z,20.27
2022-08-02T19:03:49.161Z,20.15
2022-08-02T19:06:19.734Z,20.06
2022-08-02T19:09:05.197Z,20.03
2022-08-02T19:11:36.305Z,19.91
2022-08-02T19:14:05.253Z,19.86
2022-08-02T19:16:37.033Z,19.79
2022-08-02T19:19:07.867Z,19.71
2022-08-02T19:22:15.840Z,19.63
2022-08-02T19:24:23.543Z,19.42
2022-08-02T19:26:52.537Z,19.26
2022-08-02T19:29:43.454Z,19.15
2022-08-02T19:32:40.637Z,19.05
2022-08-02T19:34:56.350Z,19.09
2022-08-02T19:37:24.412Z,19.01
2022-08-02T19:39:59.550Z,19.02
2022-08-02T19:42:27.455Z,18.99
2022-08-02T19:44:55.332Z,18.96
2022-08-02T19:47:23.992Z,18.87
2022-08-02T19:49:53.088Z,18.85
2022-08-02T19:52:25.171Z,18.79
2022-08-02T19:54:55.574Z,18.72
2022-08-02T19:57:25.368Z,18.69
2022-08-02T19:59:54.175Z,18.63
2022-08-02T20:02:22.076Z,18.61
2022-08-02T20:10:31.666Z,18.33
2022-08-02T20:13:03.856Z,18.28
2022-08-02T20:15:56.008Z,18.26
2022-08-02T20:18:26.706Z,18.19
2022-08-02T20:20:54.736Z,18.14
2022-08-02T20:23:33.135Z,18.13
2022-08-02T20:26:02.289Z,18.07
2022-08-02T20:28:30.176Z,18.02
2022-08-02T20:30:57.726Z,18.00
2022-08-02T20:33:35.420Z,17.98
2022-08-02T20:36:23.271Z,17.80
2022-08-02T20:38:51.735Z,17.85
2022-08-02T20:41:21.610Z,17.81
2022-08-02T20:43:50.417Z,17.79
2022-08-02T20:46:18.057Z,17.73
2022-08-02T20:48:45.738Z,17.68
2022-08-02T20:51:14.758Z,17.75
2022-08-02T20:54:00.121Z,17.67
2022-08-02T20:56:33.605Z,17.66
2022-08-02T20:59:15.973Z,17.72
2022-08-02T21:01:56.961Z,17.71
2022-08-02T21:04:26.699Z,17.71
2022-08-02T21:06:56.171Z,17.53
2022-08-02T21:09:52.900Z,17.56
2022-08-02T21:12:30.233Z,17.41
2022-08-02T21:15:00.199Z,17.48
2022-08-02T21:17:43.186Z,17.49
2022-08-02T21:20:17.934Z,17.43
2022-08-02T21:22:55.894Z,17.39
2022-08-02T21:25:42.298Z,17.35
2022-08-02T21:28:17.341Z,17.24
2022-08-02T21:30:46.835Z,17.19
2022-08-02T21:33:23.106Z,17.12
2022-08-02T21:35:53.259Z,17.02
2022-08-02T21:38:35.273Z,17.05
2022-08-02T21:41:11.286Z,17.08
2022-08-02T21:43:40.561Z,17.09
2022-08-02T21:46:11.771Z,17.02
2022-08-02T21:48:42.556Z,16.97
2022-08-02T21:51:15.890Z,16.97
2022-08-02T21:54:18.111Z,16.92
2022-08-02T21:56:32.276Z,16.94
2022-08-02T21:59:00.086Z,16.91
2022-08-02T22:01:32.423Z,16.91
2022-08-02T22:03:59.999Z,16.92
2022-08-02T22:06:28.114Z,16.88
2022-08-02T22:08:56.099Z,16.83
2022-08-02T22:11:25.086Z,16.79
2022-08-02T22:13:55.281Z,16.67
2022-08-02T22:16:23.243Z,16.67
2022-08-02T22:18:54.323Z,16.64
2022-08-02T22:21:22.852Z,16.58
2022-08-02T22:23:52.159Z,16.62
2022-08-02T22:26:20.635Z,16.56
2022-08-02T22:28:52.113Z,16.53
2022-08-02T22:31:40.946Z,16.51
2022-08-02T22:34:26.514Z,16.49
2022-08-02T22:36:58.747Z,16.48
2022-08-02T22:39:28.596Z,16.42
2022-08-02T22:42:06.508Z,16.34
2022-08-02T22:44:36.085Z,16.31
2022-08-02T22:47:07.553Z,16.26
2022-08-02T22:49:51.929Z,16.22
2022-08-02T22:52:22.216Z,16.21
2022-08-02T22:54:50.877Z,16.17
2022-08-02T22:57:29.970Z,16.11
2022-08-02T22:58:54.484Z,18.42
2022-08-02T22:59:05.337Z,18.54
2022-08-02T23:00:00.404Z,16.07
2022-08-02T23:02:30.154Z,16.06
2022-08-02T23:04:58.170Z,16.04
2022-08-02T23:07:26.636Z,16.01
2022-08-02T23:09:55.574Z,16.06
2022-08-02T23:12:23.724Z,15.99
2022-08-02T23:14:52.871Z,16.02
2022-08-02T23:17:40.164Z,15.94
2022-08-02T23:20:16.877Z,15.65
2022-08-02T23:22:49.775Z,15.75
2022-08-02T23:25:19.636Z,15.70
2022-08-02T23:27:50.825Z,15.66
2022-08-02T23:30:20.031Z,15.63
2022-08-02T23:32:47.987Z,15.60
2022-08-02T23:35:16.906Z,15.55
2022-08-02T23:38:00.487Z,15.54
2022-08-02T23:40:39.843Z,15.55
2022-08-02T23:43:14.395Z,15.54
2022-08-02T23:45:45.312Z,15.51
2022-08-02T23:48:13.088Z,15.50
2022-08-02T23:50:40.541Z,15.41
2022-08-02T23:53:08.002Z,15.52
2022-08-02T23:55:35.636Z,15.44
2022-08-02T23:58:03.454Z,15.47
